Time;durP1;ratioP1;P1;durP2;ratioP2;P2;SDS_P1;SDS_P2;PMS_P1;PMS_P2;Temp;Humidity;BMP_temperature;BMP_pressure;BME280_temperature;BME280_humidity;BME280_pressure;Samples;Min_cycle;Max_cycle;Signal;HPM_P1;HPM_P2
2022/10/15 00:01:46;;;;;;;111.30;57.58;;;;;;;;;;4967887;28;20037;-72
2022/10/15 00:04:12;;;;;;;113.15;59.35;;;;;;;;;;4961281;28;20031;-72
2022/10/15 00:06:38;;;;;;;122.20;61.67;;;;;;;;;;4949753;28;20046;-72
2022/10/15 00:09:04;;;;;;;116.28;59.17;;;;;;;;;;4967589;28;20086;-72
2022/10/15 00:11:31;;;;;;;116.15;60.03;;;;;;;;;;4965638;28;20034;-72
2022/10/15 00:13:58;;;;;;;112.18;58.63;;;;;;;;;;4966293;28;20125;-72
2022/10/15 00:16:25;;;;;;;114.13;61.97;;;;;;;;;;4968594;28;20031;-72
2022/10/15 00:18:51;;;;;;;120.40;63.53;;;;;;;;;;4965088;28;20026;-73
2022/10/15 00:21:18;;;;;;;119.75;63.15;;;;;;;;;;4966576;28;20118;-72
2022/10/15 00:23:45;;;;;;;122.72;63.97;;;;;;;;;;4964456;28;20070;-72
2022/10/15 00:26:12;;;;;;;118.70;64.38;;;;;;;;;;4966388;28;20073;-74
2022/10/15 00:28:38;;;;;;;120.00;65.75;;;;;;;;;;4965006;28;20580;-72
2022/10/15 00:31:06;;;;;;;118.85;64.63;;;;;;;;;;4947628;28;20381;-72
2022/10/15 00:33:32;;;;;;;121.32;68.05;;;;;;;;;;4967901;28;20714;-72
2022/10/15 00:35:58;;;;;;;119.25;65.82;;;;;;;;;;4969508;28;20051;-72
2022/10/15 00:38:24;;;;;;;121.68;66.55;;;;;;;;;;4967414;28;20538;-72
2022/10/15 00:40:50;;;;;;;119.15;69.03;;;;;;;;;;4967066;28;20034;-72
2022/10/15 00:43:16;;;;;;;120.10;68.10;;;;;;;;;;4966723;28;20068;-72
2022/10/15 00:45:42;;;;;;;117.30;67.63;;;;;;;;;;4965068;28;20149;-73
2022/10/15 00:48:11;;;;;;;128.07;66.30;;;;;;;;;;4965650;28;20066;-72
2022/10/15 00:50:38;;;;;;;122.22;67.63;;;;;;;;;;4967025;28;20034;-72
2022/10/15 00:53:10;;;;;;;133.68;71.03;;;;;;;;;;4980823;28;20041;-73
2022/10/15 00:55:38;;;;;;;127.43;70.10;;;;;;;;;;4981777;28;20682;-72
2022/10/15 00:58:06;;;;;;;128.68;70.57;;;;;;;;;;4965781;28;20033;-72
2022/10/15 01:00:33;;;;;;;134.98;71.97;;;;;;;;;;4971762;28;20527;-73
2022/10/15 01:02:59;;;;;;;140.73;72.97;;;;;;;;;;4980581;28;20523;-72
2022/10/15 01:05:25;;;;;;;136.60;70.95;;;;;;;;;;4973019;28;20066;-72
2022/10/15 01:07:51;;;;;;;137.77;72.00;;;;;;;;;;4969660;28;20065;-73
2022/10/15 01:10:18;;;;;;;146.15;71.78;;;;;;;;;;4971588;28;20081;-72
2022/10/15 01:12:52;;;;;;;151.98;76.60;;;;;;;;;;4965684;28;20488;-73
2022/10/15 01:15:18;;;;;;;152.52;75.57;;;;;;;;;;4969160;28;20030;-73
2022/10/15 01:17:53;;;;;;;162.18;78.35;;;;;;;;;;4970140;28;20049;-73
2022/10/15 01:20:22;;;;;;;167.95;77.35;;;;;;;;;;4980182;28;20031;-72
2022/10/15 01:23:01;;;;;;;177.48;82.05;;;;;;;;;;4979647;28;20031;-72
2022/10/15 01:25:45;;;;;;;183.23;83.38;;;;;;;;;;4981644;28;21010;-72
2022/10/15 01:28:32;;;;;;;200.23;86.05;;;;;;;;;;4966388;28;20037;-72
2022/10/15 01:31:05;;;;;;;207.93;86.43;;;;;;;;;;4969466;28;20479;-72
2022/10/15 01:33:38;;;;;;;208.85;87.38;;;;;;;;;;4967228;28;20031;-72
2022/10/15 01:36:17;;;;;;;223.35;91.78;;;;;;;;;;4966395;28;20035;-72
2022/10/15 01:38:46;;;;;;;239.95;96.05;;;;;;;;;;4966085;28;20035;-71
2022/10/15 01:41:19;;;;;;;221.00;93.28;;;;;;;;;;4967096;28;20038;-72
2022/10/15 01:43:48;;;;;;;217.93;91.00;;;;;;;;;;4968926;28;20030;-72
2022/10/15 01:46:17;;;;;;;221.90;94.88;;;;;;;;;;4971195;28;20085;-72
2022/10/15 01:48:43;;;;;;;211.65;91.45;;;;;;;;;;4971013;28;20085;-72
2022/10/15 01:51:10;;;;;;;199.40;88.93;;;;;;;;;;4968797;28;20034;-72
2022/10/15 01:53:37;;;;;;;201.45;92.40;;;;;;;;;;4969928;28;20098;-72
2022/10/15 01:56:06;;;;;;;196.70;88.32;;;;;;;;;;4970306;28;20035;-72
2022/10/15 01:58:34;;;;;;;194.70;87.55;;;;;;;;;;4967484;28;20070;-72
2022/10/15 02:01:00;;;;;;;191.80;88.35;;;;;;;;;;4969464;28;20058;-73
2022/10/15 02:03:26;;;;;;;203.02;88.57;;;;;;;;;;4953222;28;20038;-72
2022/10/15 02:05:56;;;;;;;180.75;83.43;;;;;;;;;;4969742;28;20055;-72
2022/10/15 02:08:22;;;;;;;183.90;85.90;;;;;;;;;;4968468;28;20033;-72
2022/10/15 02:10:55;;;;;;;185.30;82.28;;;;;;;;;;4973786;28;20038;-72
2022/10/15 02:13:24;;;;;;;177.48;81.95;;;;;;;;;;4967517;28;20026;-72
2022/10/15 02:16:03;;;;;;;174.77;79.70;;;;;;;;;;4985501;28;20507;-72
2022/10/15 02:18:29;;;;;;;171.68;82.47;;;;;;;;;;4966653;28;21260;-71
2022/10/15 02:20:59;;;;;;;175.00;81.68;;;;;;;;;;4968374;28;20145;-71
2022/10/15 02:23:38;;;;;;;187.15;82.07;;;;;;;;;;4970119;28;20038;-71
2022/10/15 02:26:05;;;;;;;158.13;79.78;;;;;;;;;;4969950;28;20498;-72
2022/10/15 02:28:33;;;;;;;160.68;79.22;;;;;;;;;;4969385;28;20027;-73
2022/10/15 02:30:59;;;;;;;158.48;76.18;;;;;;;;;;4969434;28;20082;-73
2022/10/15 02:33:25;;;;;;;156.02;76.82;;;;;;;;;;4967499;28;20030;-73
2022/10/15 02:35:52;;;;;;;151.70;77.00;;;;;;;;;;4969439;28;20031;-73
2022/10/15 02:38:19;;;;;;;154.98;73.93;;;;;;;;;;4971700;28;20507;-73
2022/10/15 02:40:46;;;;;;;145.15;73.57;;;;;;;;;;4982523;28;20057;-73
2022/10/15 02:43:13;;;;;;;151.90;76.45;;;;;;;;;;4970256;28;20042;-73
2022/10/15 02:45:39;;;;;;;153.00;75.90;;;;;;;;;;4987214;28;20039;-71
2022/10/15 02:48:05;;;;;;;158.18;77.57;;;;;;;;;;4967812;28;20042;-74
2022/10/15 02:50:32;;;;;;;154.85;79.28;;;;;;;;;;4984745;28;20162;-73
2022/10/15 02:52:57;;;;;;;156.50;76.97;;;;;;;;;;4968630;28;20126;-74
2022/10/15 02:55:24;;;;;;;159.02;77.88;;;;;;;;;;4965461;28;20117;-73
2022/10/15 02:57:50;;;;;;;158.25;79.43;;;;;;;;;;4951681;28;20046;-73
2022/10/15 03:00:17;;;;;;;163.23;80.65;;;;;;;;;;4966730;28;20069;-73
2022/10/15 03:02:43;;;;;;;165.80;79.93;;;;;;;;;;4968540;28;20023;-73
2022/10/15 03:05:09;;;;;;;162.15;80.95;;;;;;;;;;4964825;28;20047;-71
2022/10/15 03:07:35;;;;;;;158.68;79.82;;;;;;;;;;4968231;28;20105;-73
2022/10/15 03:10:01;;;;;;;170.15;80.88;;;;;;;;;;4967822;28;20027;-73
2022/10/15 03:12:27;;;;;;;179.82;82.45;;;;;;;;;;4970096;28;20030;-73
2022/10/15 03:14:53;;;;;;;184.20;84.82;;;;;;;;;;4968934;28;20027;-74
2022/10/15 03:17:19;;;;;;;185.00;86.10;;;;;;;;;;4970199;28;20092;-74
2022/10/15 03:19:45;;;;;;;195.43;89.38;;;;;;;;;;4966165;28;20481;-74
2022/10/15 03:22:11;;;;;;;204.52;88.53;;;;;;;;;;4968040;28;20034;-74
2022/10/15 03:24:37;;;;;;;206.07;91.93;;;;;;;;;;4952363;28;20575;-74
2022/10/15 03:27:03;;;;;;;202.60;90.63;;;;;;;;;;4967605;28;20041;-73
2022/10/15 03:29:29;;;;;;;198.05;89.15;;;;;;;;;;4979426;28;20054;-73
2022/10/15 03:31:55;;;;;;;212.60;90.47;;;;;;;;;;4967954;28;20119;-73
2022/10/15 03:34:21;;;;;;;220.82;94.55;;;;;;;;;;4966402;28;20031;-73
2022/10/15 03:36:47;;;;;;;220.88;93.97;;;;;;;;;;4968615;28;20027;-73
2022/10/15 03:39:14;;;;;;;218.98;94.38;;;;;;;;;;4980743;28;20023;-73
2022/10/15 03:41:40;;;;;;;220.82;94.15;;;;;;;;;;4969752;28;20117;-72
2022/10/15 03:44:07;;;;;;;230.10;96.95;;;;;;;;;;4967640;28;20070;-73
2022/10/15 03:46:34;;;;;;;229.75;98.80;;;;;;;;;;4968703;28;20130;-72
2022/10/15 03:49:00;;;;;;;233.13;96.90;;;;;;;;;;4966826;28;20110;-73
2022/10/15 03:51:26;;;;;;;249.63;103.60;;;;;;;;;;4968931;28;20041;-72
2022/10/15 03:53:53;;;;;;;235.13;100.78;;;;;;;;;;4969783;28;20026;-72
2022/10/15 03:56:19;;;;;;;245.55;104.57;;;;;;;;;;4970625;28;20039;-73
2022/10/15 03:58:45;;;;;;;246.13;101.97;;;;;;;;;;4949994;28;20507;-72
2022/10/15 04:01:11;;;;;;;248.95;101.75;;;;;;;;;;4951333;28;20053;-72
2022/10/15 04:03:37;;;;;;;262.92;105.95;;;;;;;;;;4966943;28;21328;-72
2022/10/15 04:06:04;;;;;;;255.20;106.43;;;;;;;;;;4969828;28;20496;-72
2022/10/15 04:08:30;;;;;;;263.05;109.30;;;;;;;;;;4966508;28;20488;-72
2022/10/15 04:10:56;;;;;;;253.15;106.28;;;;;;;;;;4966686;28;20047;-72
2022/10/15 04:13:22;;;;;;;283.60;110.72;;;;;;;;;;4966913;28;20110;-72
2022/10/15 04:15:48;;;;;;;270.48;111.38;;;;;;;;;;4967114;28;20087;-72
2022/10/15 04:18:14;;;;;;;265.35;105.95;;;;;;;;;;4966756;28;20142;-72
2022/10/15 04:20:41;;;;;;;289.45;112.90;;;;;;;;;;4983420;28;20043;-73
2022/10/15 04:23:07;;;;;;;274.23;109.75;;;;;;;;;;4964082;28;20038;-71
2022/10/15 04:25:34;;;;;;;278.73;111.88;;;;;;;;;;4981549;28;20407;-73
2022/10/15 04:27:59;;;;;;;264.38;108.68;;;;;;;;;;4965988;28;20063;-73
2022/10/15 04:30:25;;;;;;;283.30;112.25;;;;;;;;;;4967602;28;20917;-72
2022/10/15 04:32:52;;;;;;;281.15;112.88;;;;;;;;;;4978078;28;20030;-72
2022/10/15 04:35:18;;;;;;;303.98;118.15;;;;;;;;;;4965342;28;20062;-73
2022/10/15 04:37:44;;;;;;;285.38;115.55;;;;;;;;;;4968229;28;20038;-73
2022/10/15 04:40:11;;;;;;;280.60;113.20;;;;;;;;;;4976355;28;20031;-72
2022/10/15 04:42:37;;;;;;;267.88;115.15;;;;;;;;;;4966258;28;20367;-72
2022/10/15 04:45:03;;;;;;;268.80;116.45;;;;;;;;;;4978009;28;20030;-73
2022/10/15 04:47:29;;;;;;;271.80;111.25;;;;;;;;;;4963813;28;20041;-72
2022/10/15 04:49:55;;;;;;;252.35;110.03;;;;;;;;;;4979757;28;20039;-72
2022/10/15 04:52:22;;;;;;;258.88;109.10;;;;;;;;;;4978740;28;20101;-72
2022/10/15 04:54:48;;;;;;;246.90;108.13;;;;;;;;;;4969647;28;20042;-73
2022/10/15 04:57:14;;;;;;;247.80;106.93;;;;;;;;;;4966403;28;20511;-73
2022/10/15 04:59:41;;;;;;;244.20;108.18;;;;;;;;;;4967594;28;20034;-73
2022/10/15 05:02:07;;;;;;;241.13;108.20;;;;;;;;;;4968544;28;20031;-73
2022/10/15 05:04:33;;;;;;;235.77;105.18;;;;;;;;;;4968360;28;20039;-73
2022/10/15 05:06:59;;;;;;;242.27;104.75;;;;;;;;;;4965054;28;20121;-73
2022/10/15 05:09:25;;;;;;;231.65;104.53;;;;;;;;;;4966927;28;20121;-72
2022/10/15 05:11:51;;;;;;;220.95;101.25;;;;;;;;;;4965309;28;20049;-72
2022/10/15 05:14:17;;;;;;;222.95;101.47;;;;;;;;;;4964071;28;20051;-72
2022/10/15 05:16:43;;;;;;;231.75;103.75;;;;;;;;;;4965591;28;20039;-72
2022/10/15 05:19:10;;;;;;;236.25;105.30;;;;;;;;;;4968963;28;20041;-72
2022/10/15 05:21:36;;;;;;;236.48;103.93;;;;;;;;;;4972399;28;20113;-72
2022/10/15 05:24:04;;;;;;;235.98;102.90;;;;;;;;;;4981532;28;20520;-73
2022/10/15 05:26:31;;;;;;;223.68;102.45;;;;;;;;;;4973311;28;20030;-73
2022/10/15 05:28:58;;;;;;;232.23;102.63;;;;;;;;;;4972499;28;20354;-73
2022/10/15 05:31:25;;;;;;;231.68;103.82;;;;;;;;;;4968694;28;20041;-74
2022/10/15 05:33:52;;;;;;;248.55;108.15;;;;;;;;;;4971727;28;20027;-74
2022/10/15 05:36:23;;;;;;;242.10;105.43;;;;;;;;;;4987942;28;20027;-74
2022/10/15 05:38:50;;;;;;;254.77;108.47;;;;;;;;;;4972243;28;20038;-73
2022/10/15 05:41:16;;;;;;;263.58;106.53;;;;;;;;;;4971900;28;20058;-74
2022/10/15 05:43:42;;;;;;;270.10;106.43;;;;;;;;;;4968878;28;20045;-73
2022/10/15 05:46:08;;;;;;;266.92;105.32;;;;;;;;;;4971094;28;20034;-73
2022/10/15 05:48:34;;;;;;;282.08;102.82;;;;;;;;;;4981463;28;20105;-73
2022/10/15 05:51:04;;;;;;;281.10;106.40;;;;;;;;;;4976262;28;20034;-73
2022/10/15 05:53:30;;;;;;;295.20;105.47;;;;;;;;;;4973613;28;20019;-73
2022/10/15 05:55:57;;;;;;;298.98;104.00;;;;;;;;;;4987041;28;20046;-73
2022/10/15 05:58:24;;;;;;;279.65;100.72;;;;;;;;;;4972974;28;20031;-73
2022/10/15 06:00:54;;;;;;;286.33;98.80;;;;;;;;;;4998847;28;20113;-72
2022/10/15 06:03:20;;;;;;;301.48;100.95;;;;;;;;;;4972246;28;20049;-71
2022/10/15 06:05:46;;;;;;;288.17;96.35;;;;;;;;;;4970548;28;20133;-72
2022/10/15 06:08:12;;;;;;;275.80;92.10;;;;;;;;;;4962197;28;20116;-72
2022/10/15 06:10:38;;;;;;;292.27;94.63;;;;;;;;;;4971390;28;20046;-72
2022/10/15 06:13:05;;;;;;;308.48;97.57;;;;;;;;;;4974404;28;20034;-73
2022/10/15 06:15:31;;;;;;;309.48;94.20;;;;;;;;;;4973103;28;20499;-72
2022/10/15 06:17:57;;;;;;;316.63;94.78;;;;;;;;;;4970930;28;20038;-72
2022/10/15 06:20:23;;;;;;;331.33;100.07;;;;;;;;;;4970200;28;20035;-73
2022/10/15 06:22:49;;;;;;;319.95;97.85;;;;;;;;;;4970256;28;20871;-72
2022/10/15 06:25:15;;;;;;;329.40;94.43;;;;;;;;;;4971436;28;20035;-72
2022/10/15 06:27:41;;;;;;;334.45;94.15;;;;;;;;;;4967251;28;20039;-73
2022/10/15 06:30:08;;;;;;;331.15;93.07;;;;;;;;;;4963180;28;20035;-73
2022/10/15 06:32:34;;;;;;;325.83;93.30;;;;;;;;;;4968225;28;20105;-72
2022/10/15 06:35:00;;;;;;;317.02;86.53;;;;;;;;;;4970993;28;20096;-72
2022/10/15 06:37:26;;;;;;;311.42;86.25;;;;;;;;;;4972940;28;20571;-72
2022/10/15 06:39:52;;;;;;;321.23;87.72;;;;;;;;;;4969906;28;20069;-72
2022/10/15 06:42:18;;;;;;;292.80;82.97;;;;;;;;;;4971646;28;20066;-72
2022/10/15 06:44:44;;;;;;;292.77;82.85;;;;;;;;;;4969398;28;20591;-73
2022/10/15 06:47:10;;;;;;;290.63;85.30;;;;;;;;;;4980433;28;20042;-72
2022/10/15 06:49:35;;;;;;;288.35;83.30;;;;;;;;;;4971505;28;20059;-71
2022/10/15 06:52:01;;;;;;;251.18;75.70;;;;;;;;;;4974600;28;20034;-73
2022/10/15 06:54:27;;;;;;;271.73;79.63;;;;;;;;;;4971110;28;20394;-72
2022/10/15 06:56:53;;;;;;;260.67;78.22;;;;;;;;;;4976461;28;20027;-70
2022/10/15 06:59:20;;;;;;;267.30;78.55;;;;;;;;;;4974281;28;20027;-72
2022/10/15 07:01:46;;;;;;;256.40;75.28;;;;;;;;;;4990265;28;20447;-70
2022/10/15 07:04:12;;;;;;;258.50;77.82;;;;;;;;;;4985054;28;20027;-70
2022/10/15 07:06:40;;;;;;;268.77;78.82;;;;;;;;;;4975770;28;20058;-70
2022/10/15 07:09:06;;;;;;;261.67;78.53;;;;;;;;;;4974455;28;20038;-71
2022/10/15 07:11:33;;;;;;;270.85;80.38;;;;;;;;;;4996780;28;20058;-71
2022/10/15 07:13:58;;;;;;;260.10;77.55;;;;;;;;;;4971897;28;20042;-71
2022/10/15 07:16:25;;;;;;;268.48;79.97;;;;;;;;;;4971301;28;20237;-72
2022/10/15 07:18:51;;;;;;;271.20;81.28;;;;;;;;;;4970510;28;20023;-72
2022/10/15 07:21:17;;;;;;;254.07;74.88;;;;;;;;;;4969663;28;20050;-72
2022/10/15 07:23:43;;;;;;;234.85;71.70;;;;;;;;;;4975156;28;20035;-72
2022/10/15 07:26:09;;;;;;;237.10;67.82;;;;;;;;;;5004250;28;20483;-73
2022/10/15 07:28:35;;;;;;;220.50;67.13;;;;;;;;;;4973620;28;20042;-73
2022/10/15 07:31:02;;;;;;;232.73;67.88;;;;;;;;;;4969722;28;20145;-73
2022/10/15 07:33:29;;;;;;;218.52;65.05;;;;;;;;;;4970332;28;20061;-73
2022/10/15 07:35:55;;;;;;;223.15;71.05;;;;;;;;;;4979176;28;20484;-73
2022/10/15 07:38:21;;;;;;;204.00;65.35;;;;;;;;;;4977488;28;20029;-71
2022/10/15 07:40:47;;;;;;;197.57;65.18;;;;;;;;;;4975658;28;20491;-72
2022/10/15 07:43:14;;;;;;;180.75;62.03;;;;;;;;;;4987084;28;20121;-72
2022/10/15 07:45:40;;;;;;;180.35;59.13;;;;;;;;;;4992771;28;20528;-71
2022/10/15 07:48:06;;;;;;;144.82;55.63;;;;;;;;;;4981774;28;20027;-73
2022/10/15 07:50:32;;;;;;;142.77;53.00;;;;;;;;;;4970358;28;20138;-72
2022/10/15 07:52:58;;;;;;;123.80;48.28;;;;;;;;;;4969723;28;20097;-72
2022/10/15 07:55:24;;;;;;;121.57;48.13;;;;;;;;;;4976888;28;20034;-72
2022/10/15 07:57:50;;;;;;;111.93;46.30;;;;;;;;;;4987638;28;20050;-71
2022/10/15 08:00:16;;;;;;;100.57;42.90;;;;;;;;;;4970359;28;20453;-71
2022/10/15 08:02:42;;;;;;;90.85;42.83;;;;;;;;;;4972276;28;20524;-72
2022/10/15 08:05:08;;;;;;;91.55;43.05;;;;;;;;;;4972330;28;20037;-70
2022/10/15 08:07:35;;;;;;;83.30;40.80;;;;;;;;;;4965859;28;20042;-72
2022/10/15 08:10:00;;;;;;;79.07;40.10;;;;;;;;;;4970654;28;20038;-71
2022/10/15 08:12:27;;;;;;;77.78;40.72;;;;;;;;;;4985343;28;20453;-72
2022/10/15 08:14:53;;;;;;;77.30;40.75;;;;;;;;;;4976789;28;20022;-72
2022/10/15 08:17:19;;;;;;;77.78;39.30;;;;;;;;;;4975116;28;20114;-72
2022/10/15 08:19:45;;;;;;;66.10;36.20;;;;;;;;;;4985006;28;20039;-72
2022/10/15 08:22:11;;;;;;;61.30;35.05;;;;;;;;;;4961877;28;20035;-72
2022/10/15 08:24:37;;;;;;;66.05;35.20;;;;;;;;;;4969824;28;20496;-72
2022/10/15 08:27:03;;;;;;;63.72;35.70;;;;;;;;;;4974039;28;20516;-72
2022/10/15 08:29:29;;;;;;;66.80;35.63;;;;;;;;;;4978594;28;20042;-71
2022/10/15 08:31:55;;;;;;;60.40;34.70;;;;;;;;;;4975837;28;20026;-72
2022/10/15 08:34:21;;;;;;;59.22;34.47;;;;;;;;;;4983349;28;20019;-71
2022/10/15 08:36:47;;;;;;;54.42;33.45;;;;;;;;;;4966861;28;20086;-72
2022/10/15 08:39:13;;;;;;;61.50;33.38;;;;;;;;;;4972475;28;20027;-72
2022/10/15 08:41:42;;;;;;;46.72;29.70;;;;;;;;;;4974566;28;20027;-72
2022/10/15 08:44:15;;;;;;;46.55;29.98;;;;;;;;;;4976943;28;20514;-72
2022/10/15 08:46:46;;;;;;;42.90;28.02;;;;;;;;;;4982884;28;20034;-72
2022/10/15 08:49:27;;;;;;;36.72;26.25;;;;;;;;;;4991168;28;20037;-72
2022/10/15 08:51:56;;;;;;;36.08;25.63;;;;;;;;;;4957267;28;20110;-70
2022/10/15 08:54:22;;;;;;;34.28;24.73;;;;;;;;;;4975412;28;20027;-70
2022/10/15 08:56:53;;;;;;;31.65;23.55;;;;;;;;;;4974507;28;20027;-70
2022/10/15 08:59:32;;;;;;;32.17;23.15;;;;;;;;;;4971071;28;20125;-71
2022/10/15 09:01:58;;;;;;;32.33;23.75;;;;;;;;;;4967677;28;20045;-71
2022/10/15 09:04:43;;;;;;;33.42;24.60;;;;;;;;;;4968815;28;20030;-71
2022/10/15 09:07:12;;;;;;;35.25;24.42;;;;;;;;;;4991385;28;20504;-71
2022/10/15 09:09:41;;;;;;;38.90;25.58;;;;;;;;;;4986174;28;20097;-71
2022/10/15 09:12:26;;;;;;;34.95;24.23;;;;;;;;;;4970400;28;20042;-72
2022/10/15 09:14:54;;;;;;;30.27;23.15;;;;;;;;;;4993773;28;20041;-72
2022/10/15 09:17:23;;;;;;;33.30;25.67;;;;;;;;;;4974517;28;20031;-71
2022/10/15 09:19:51;;;;;;;30.30;23.27;;;;;;;;;;4979527;28;20010;-71
2022/10/15 09:22:18;;;;;;;30.42;21.33;;;;;;;;;;4989198;28;20094;-71
2022/10/15 09:24:45;;;;;;;30.75;20.80;;;;;;;;;;4980219;28;20546;-71
2022/10/15 09:27:14;;;;;;;29.73;21.20;;;;;;;;;;4976141;28;20034;-71
2022/10/15 09:29:44;;;;;;;35.38;20.02;;;;;;;;;;4978522;28;20027;-71
2022/10/15 09:32:23;;;;;;;28.20;18.45;;;;;;;;;;4965125;28;20031;-71
2022/10/15 09:35:01;;;;;;;23.50;17.52;;;;;;;;;;4969834;28;20066;-71
2022/10/15 09:37:27;;;;;;;26.35;18.17;;;;;;;;;;4977857;28;20400;-71
2022/10/15 09:40:09;;;;;;;22.25;16.70;;;;;;;;;;4975189;28;20014;-71
2022/10/15 09:42:39;;;;;;;26.98;18.10;;;;;;;;;;4979217;28;20068;-71
2022/10/15 09:45:10;;;;;;;28.05;17.77;;;;;;;;;;4976107;28;20034;-71
2022/10/15 09:47:37;;;;;;;27.35;18.02;;;;;;;;;;4977264;28;20093;-73
2022/10/15 09:50:06;;;;;;;27.20;18.38;;;;;;;;;;4981034;28;20181;-72
2022/10/15 09:52:50;;;;;;;34.72;19.52;;;;;;;;;;4976946;28;20039;-74
2022/10/15 09:55:16;;;;;;;38.60;21.30;;;;;;;;;;4990891;28;20105;-72
2022/10/15 09:57:45;;;;;;;38.08;22.17;;;;;;;;;;4990841;28;20684;-74
2022/10/15 10:00:13;;;;;;;36.22;21.27;;;;;;;;;;4971994;28;20037;-74
2022/10/15 10:02:40;;;;;;;42.65;23.45;;;;;;;;;;4973631;28;20073;-74
2022/10/15 10:05:20;;;;;;;50.92;24.25;;;;;;;;;;4976268;28;20500;-74
2022/10/15 10:07:46;;;;;;;41.05;23.48;;;;;;;;;;4987764;28;20050;-74
2022/10/15 10:10:24;;;;;;;41.70;24.80;;;;;;;;;;4978110;28;20034;-74
2022/10/15 10:12:51;;;;;;;44.70;24.90;;;;;;;;;;4984289;28;20034;-74
2022/10/15 10:15:30;;;;;;;43.05;24.65;;;;;;;;;;4996384;28;20109;-74
2022/10/15 10:17:57;;;;;;;43.10;24.70;;;;;;;;;;4992831;28;20690;-74
2022/10/15 10:20:23;;;;;;;41.05;24.65;;;;;;;;;;4992143;28;20023;-74
2022/10/15 10:22:54;;;;;;;38.75;24.00;;;;;;;;;;4978511;28;20105;-74
2022/10/15 10:25:22;;;;;;;41.38;24.15;;;;;;;;;;4977137;28;20061;-73
2022/10/15 10:27:48;;;;;;;44.00;24.90;;;;;;;;;;4985602;28;20492;-74
2022/10/15 10:30:15;;;;;;;43.60;25.45;;;;;;;;;;4973774;28;20026;-74
2022/10/15 10:32:42;;;;;;;46.92;26.38;;;;;;;;;;4974992;28;20037;-74
2022/10/15 10:35:15;;;;;;;41.88;24.30;;;;;;;;;;4972791;28;20069;-74
2022/10/15 10:37:42;;;;;;;44.25;23.80;;;;;;;;;;4982055;28;20345;-73
2022/10/15 10:40:20;;;;;;;39.50;24.17;;;;;;;;;;4985464;28;20039;-74
2022/10/15 10:42:46;;;;;;;42.85;23.42;;;;;;;;;;4977649;28;20019;-75
2022/10/15 10:45:17;;;;;;;36.28;23.65;;;;;;;;;;4973265;28;20408;-74
2022/10/15 10:47:43;;;;;;;38.40;23.98;;;;;;;;;;4982362;28;20031;-74
2022/10/15 10:50:30;;;;;;;40.23;24.13;;;;;;;;;;4970448;28;20504;-74
2022/10/15 10:52:58;;;;;;;39.47;24.42;;;;;;;;;;4973848;28;20042;-73
2022/10/15 10:55:33;;;;;;;37.13;22.45;;;;;;;;;;4987892;28;20053;-74
2022/10/15 10:57:59;;;;;;;36.63;22.17;;;;;;;;;;4982040;28;20484;-74
2022/10/15 11:00:38;;;;;;;42.22;23.17;;;;;;;;;;4979663;28;20539;-74
2022/10/15 11:03:04;;;;;;;31.00;19.05;;;;;;;;;;4969421;28;20037;-73
2022/10/15 11:05:33;;;;;;;31.35;20.10;;;;;;;;;;4973362;28;20093;-73
2022/10/15 11:07:58;;;;;;;36.50;21.02;;;;;;;;;;4985751;28;20027;-73
2022/10/15 11:10:29;;;;;;;38.28;21.10;;;;;;;;;;4971948;28;20122;-73
2022/10/15 11:12:55;;;;;;;53.22;24.95;;;;;;;;;;4987140;28;20031;-73
2022/10/15 11:15:24;;;;;;;35.00;21.35;;;;;;;;;;4970460;28;20027;-73
2022/10/15 11:18:08;;;;;;;69.03;48.03;;;;;;;;;;4980756;28;20030;-72
2022/10/15 11:20:34;;;;;;;39.28;20.92;;;;;;;;;;4955683;28;20168;-72
2022/10/15 11:23:04;;;;;;;60.83;40.58;;;;;;;;;;5006838;28;20043;-72
2022/10/15 11:25:39;;;;;;;26.90;17.48;;;;;;;;;;4983253;28;20037;-72
2022/10/15 11:28:14;;;;;;;25.63;17.50;;;;;;;;;;4980000;28;20108;-73
2022/10/15 11:30:46;;;;;;;24.90;16.63;;;;;;;;;;4995742;28;20078;-74
2022/10/15 11:33:12;;;;;;;30.48;17.70;;;;;;;;;;4979748;28;20045;-72
2022/10/15 11:35:46;;;;;;;26.88;15.93;;;;;;;;;;4987687;28;20026;-72
2022/10/15 11:38:18;;;;;;;26.70;16.52;;;;;;;;;;4983975;28;20492;-73
2022/10/15 11:41:02;;;;;;;26.27;16.63;;;;;;;;;;4982733;28;20057;-72
2022/10/15 11:43:28;;;;;;;26.85;16.98;;;;;;;;;;4988650;28;20037;-72
2022/10/15 11:46:03;;;;;;;29.52;17.10;;;;;;;;;;4982469;28;20034;-72
2022/10/15 11:48:29;;;;;;;33.50;17.95;;;;;;;;;;4998209;28;20083;-72
2022/10/15 11:50:59;;;;;;;29.27;17.77;;;;;;;;;;4974291;28;20104;-73
2022/10/15 11:53:25;;;;;;;23.65;15.73;;;;;;;;;;4978801;28;20035;-73
2022/10/15 11:55:57;;;;;;;30.05;18.85;;;;;;;;;;5002895;28;20026;-72
2022/10/15 11:58:27;;;;;;;26.83;16.67;;;;;;;;;;4971110;28;20027;-72
2022/10/15 12:00:55;;;;;;;30.93;17.00;;;;;;;;;;4985563;28;20030;-73
2022/10/15 12:03:26;;;;;;;21.77;16.05;;;;;;;;;;4988273;28;20105;-73
2022/10/15 12:05:59;;;;;;;25.17;16.48;;;;;;;;;;5005128;28;20476;-73
2022/10/15 12:08:27;;;;;;;30.98;18.00;;;;;;;;;;4996599;28;20088;-73
2022/10/15 12:10:53;;;;;;;24.42;17.30;;;;;;;;;;4977885;28;20034;-73
2022/10/15 12:13:33;;;;;;;32.33;22.73;;;;;;;;;;4973251;28;20018;-73
2022/10/15 12:16:07;;;;;;;24.23;16.15;;;;;;;;;;4978582;28;20108;-74
2022/10/15 12:18:53;;;;;;;25.40;17.55;;;;;;;;;;4979873;28;20123;-73
2022/10/15 12:21:39;;;;;;;26.70;18.15;;;;;;;;;;4972171;28;20046;-73
2022/10/15 12:24:09;;;;;;;30.38;17.80;;;;;;;;;;4987624;28;20026;-73
2022/10/15 12:26:35;;;;;;;26.70;18.17;;;;;;;;;;4992500;28;20122;-73
2022/10/15 12:29:06;;;;;;;29.20;17.45;;;;;;;;;;4993273;28;20412;-74
2022/10/15 12:31:42;;;;;;;30.60;21.65;;;;;;;;;;4987156;28;20038;-73
2022/10/15 12:34:24;;;;;;;24.55;17.17;;;;;;;;;;4971096;28;20158;-73
2022/10/15 12:36:49;;;;;;;;;;;;;;;;;;4982545;28;20018;-73
2022/10/15 12:39:23;;;;;;;21.80;15.90;;;;;;;;;;4997993;28;20280;-74
2022/10/15 12:41:50;;;;;;;26.13;16.40;;;;;;;;;;4976598;28;20109;-73
2022/10/15 12:44:21;;;;;;;24.55;17.40;;;;;;;;;;4981121;28;20037;-73
2022/10/15 12:46:47;;;;;;;25.38;17.38;;;;;;;;;;4982555;28;20034;-74
2022/10/15 12:49:25;;;;;;;26.10;18.40;;;;;;;;;;4974988;28;20043;-74
2022/10/15 12:51:52;;;;;;;27.70;18.25;;;;;;;;;;4975013;28;20032;-74
2022/10/15 12:54:38;;;;;;;28.58;19.40;;;;;;;;;;4995970;28;20046;-73
2022/10/15 12:57:37;;;;;;;30.77;19.67;;;;;;;;;;4984248;28;20022;-73
2022/10/15 13:00:23;;;;;;;29.58;20.83;;;;;;;;;;4977080;28;20085;-72
2022/10/15 13:02:50;;;;;;;27.02;19.58;;;;;;;;;;4992444;28;20037;-72
2022/10/15 13:05:29;;;;;;;21.58;16.58;;;;;;;;;;4975853;28;20042;-73
2022/10/15 13:07:57;;;;;;;22.00;16.60;;;;;;;;;;4974754;28;20098;-73
2022/10/15 13:10:26;;;;;;;19.30;16.08;;;;;;;;;;4964153;28;20073;-73
2022/10/15 13:13:00;;;;;;;16.63;14.20;;;;;;;;;;4984710;28;20089;-73
2022/10/15 13:15:27;;;;;;;16.48;13.27;;;;;;;;;;4983316;28;20027;-73
2022/10/15 13:18:12;;;;;;;21.02;15.32;;;;;;;;;;4983597;28;20026;-72
2022/10/15 13:20:40;;;;;;;17.38;12.82;;;;;;;;;;4984631;28;20098;-72
2022/10/15 13:23:27;;;;;;;16.73;12.35;;;;;;;;;;4981018;28;20027;-73
2022/10/15 13:26:10;;;;;;;13.52;10.63;;;;;;;;;;4980060;28;20096;-73
2022/10/15 13:28:38;;;;;;;26.05;11.05;;;;;;;;;;4976642;28;20041;-73
2022/10/15 13:31:06;;;;;;;14.00;9.70;;;;;;;;;;4979312;28;20085;-73
2022/10/15 13:33:34;;;;;;;12.85;9.73;;;;;;;;;;5002337;28;20042;-73
2022/10/15 13:36:09;;;;;;;15.10;9.38;;;;;;;;;;4991996;28;20481;-73
2022/10/15 13:38:37;;;;;;;9.98;8.25;;;;;;;;;;4991545;28;20038;-73
2022/10/15 13:41:03;;;;;;;8.10;6.95;;;;;;;;;;4980581;28;20045;-73
2022/10/15 13:43:29;;;;;;;8.55;7.32;;;;;;;;;;4992240;28;20034;-73
2022/10/15 13:45:59;;;;;;;7.47;6.45;;;;;;;;;;4980188;28;20056;-73
2022/10/15 13:48:27;;;;;;;10.18;5.78;;;;;;;;;;4987210;28;20039;-73
2022/10/15 13:50:54;;;;;;;60.42;8.15;;;;;;;;;;4987930;28;20109;-72
2022/10/15 13:53:20;;;;;;;54.13;9.80;;;;;;;;;;4981806;28;20030;-72
2022/10/15 13:55:50;;;;;;;14.98;7.28;;;;;;;;;;4978366;28;20014;-72
2022/10/15 13:58:25;;;;;;;6.55;5.20;;;;;;;;;;4982961;28;20018;-72
2022/10/15 14:01:03;;;;;;;7.20;4.90;;;;;;;;;;4980998;28;20049;-73
2022/10/15 14:03:30;;;;;;;7.63;4.70;;;;;;;;;;4980917;28;20109;-72
2022/10/15 14:05:57;;;;;;;8.05;4.80;;;;;;;;;;4980795;28;20030;-72
2022/10/15 14:08:33;;;;;;;8.23;4.18;;;;;;;;;;4969761;28;20102;-72
2022/10/15 14:11:00;;;;;;;5.07;4.50;;;;;;;;;;4972393;28;20049;-73
2022/10/15 14:13:27;;;;;;;6.00;4.18;;;;;;;;;;4991478;28;20030;-71
2022/10/15 14:15:56;;;;;;;5.93;4.00;;;;;;;;;;5006618;28;20022;-71
2022/10/15 14:18:27;;;;;;;5.38;4.25;;;;;;;;;;5008166;28;20443;-71